createdAt,value
2022-10-01T00:00:26.510Z,98750.50
2022-10-01T00:02:54.099Z,98751.75
2022-10-01T00:05:21.664Z,98743.06
2022-10-01T00:07:48.080Z,98723.72
2022-10-01T00:10:15.746Z,98741.47
2022-10-01T00:12:48.276Z,98736.75
2022-10-01T00:15:16.733Z,98734.69
2022-10-01T00:17:43.551Z,98743.28
2022-10-01T00:20:14.495Z,98736.94
2022-10-01T00:22:41.253Z,98732.97
2022-10-01T00:25:08.011Z,98713.31
2022-10-01T00:27:34.526Z,98710.19
2022-10-01T00:30:00.834Z,98712.28
2022-10-01T00:32:27.248Z,98710.66
2022-10-01T00:34:53.806Z,98714.84
2022-10-01T00:37:20.182Z,98708.44
2022-10-01T00:39:46.508Z,98712.75
2022-10-01T00:42:18.019Z,98700.59
2022-10-01T00:44:45.322Z,98694.13
2022-10-01T00:47:31.398Z,98688.03
2022-10-01T00:50:19.433Z,98685.81
2022-10-01T00:52:50.217Z,98692.31
2022-10-01T00:55:20.717Z,98681.22
2022-10-01T00:57:47.389Z,98677.72
2022-10-01T01:00:15.081Z,98673.81
2022-10-01T01:02:42.293Z,98669.13
2022-10-01T01:05:10.515Z,98673.47
2022-10-01T01:07:37.154Z,98663.16
2022-10-01T01:10:05.259Z,98668.97
2022-10-01T01:13:09.466Z,98669.13
2022-10-01T01:15:44.415Z,98668.78
2022-10-01T01:18:25.992Z,98657.34
2022-10-01T01:21:01.870Z,98655.03
2022-10-01T01:23:41.234Z,98654.88
2022-10-01T01:26:32.207Z,98649.31
2022-10-01T01:29:04.714Z,98638.69
2022-10-01T01:31:38.485Z,98642.34
2022-10-01T01:34:08.578Z,98646.31
2022-10-01T01:36:37.051Z,98634.91
2022-10-01T01:39:08.275Z,98607.94
2022-10-01T01:41:39.847Z,98635.19
2022-10-01T01:44:11.046Z,98623.59
2022-10-01T01:46:41.749Z,98635.47
2022-10-01T01:49:09.447Z,98624.09
2022-10-01T01:51:40.513Z,98629.72
2022-10-01T01:54:07.486Z,98617.25
2022-10-01T01:56:34.121Z,98610.13
2022-10-01T01:59:01.141Z,98613.91
2022-10-01T02:01:39.493Z,98605.03
2022-10-01T02:04:26.049Z,98605.38
2022-10-01T02:07:07.798Z,98604.44
2022-10-01T02:09:42.097Z,98601.78
2022-10-01T02:12:34.953Z,98611.47
2022-10-01T02:15:08.091Z,98594.50
2022-10-01T02:17:51.272Z,98597.88
2022-10-01T02:20:27.360Z,98599.09
2022-10-01T02:23:05.488Z,98604.91
2022-10-01T02:25:42.054Z,98603.75
2022-10-01T02:28:14.157Z,98597.06
2022-10-01T02:30:41.958Z,98592.97
2022-10-01T02:33:13.056Z,98587.91
2022-10-01T02:35:43.288Z,98591.88
2022-10-01T02:38:11.387Z,98593.44
2022-10-01T02:40:42.929Z,98583.50
2022-10-01T02:43:18.733Z,98585.03
2022-10-01T02:45:51.351Z,98580.78
2022-10-01T02:48:18.204Z,98578.50
2022-10-01T02:50:51.638Z,98572.88
2022-10-01T02:53:28.935Z,98572.13
2022-10-01T02:55:57.493Z,98565.19
2022-10-01T02:58:24.047Z,98560.66
2022-10-01T03:00:50.494Z,98562.72
2022-10-01T03:03:17.052Z,98547.88
2022-10-01T03:05:43.537Z,98550.84
2022-10-01T03:08:10.043Z,98545.34
2022-10-01T03:10:36.446Z,98542.72
2022-10-01T03:13:02.903Z,98525.81
2022-10-01T03:15:29.548Z,98534.56
2022-10-01T03:17:56.191Z,98537.91
2022-10-01T03:20:23.011Z,98531.44
2022-10-01T03:22:49.552Z,98533.84
2022-10-01T03:25:16.874Z,98518.69
2022-10-01T03:27:43.769Z,98522.13
2022-10-01T03:30:11.174Z,98522.38
2022-10-01T03:32:37.493Z,98520.56
2022-10-01T03:35:04.711Z,98513.88
2022-10-01T03:37:31.108Z,98503.25
2022-10-01T03:39:57.618Z,98501.44
2022-10-01T03:42:24.176Z,98492.22
2022-10-01T03:44:50.482Z,98503.97
2022-10-01T03:47:16.900Z,98507.06
2022-10-01T03:49:43.255Z,98515.56
2022-10-01T03:52:10.110Z,98498.00
2022-10-01T03:54:36.538Z,98496.56
2022-10-01T03:57:02.895Z,98496.88
2022-10-01T03:59:29.730Z,98496.78
2022-10-01T04:01:56.185Z,98498.56
2022-10-01T04:04:22.998Z,98496.53
2022-10-01T04:06:49.706Z,98486.94
2022-10-01T04:09:16.049Z,98472.16
2022-10-01T04:11:42.710Z,98471.56
2022-10-01T04:14:09.138Z,98477.78
2022-10-01T04:16:35.615Z,98476.69
2022-10-01T04:19:03.438Z,98472.53
2022-10-01T04:21:30.429Z,98464.81
2022-10-01T04:23:56.804Z,98469.38
2022-10-01T04:26:23.337Z,98472.50
2022-10-01T04:28:49.906Z,98465.69
2022-10-01T04:31:16.320Z,98458.69
2022-10-01T04:33:42.787Z,98466.03
2022-10-01T04:36:09.137Z,98449.72
2022-10-01T04:38:35.555Z,98448.91
2022-10-01T04:41:01.970Z,98442.44
2022-10-01T04:43:28.490Z,98453.88
2022-10-01T04:45:55.170Z,98445.59
2022-10-01T04:48:21.495Z,98447.72
2022-10-01T04:50:47.840Z,98451.50
2022-10-01T04:53:14.341Z,98456.97
2022-10-01T04:55:41.252Z,98456.00
2022-10-01T04:58:08.037Z,98453.94
2022-10-01T05:00:34.378Z,98448.06
2022-10-01T05:03:00.789Z,98448.44
2022-10-01T05:05:27.514Z,98464.38
2022-10-01T05:07:53.957Z,98459.28
2022-10-01T05:10:22.199Z,98447.38
2022-10-01T05:12:49.317Z,98471.69
2022-10-01T05:15:16.819Z,98474.56
2022-10-01T05:17:43.587Z,98463.41
2022-10-01T05:20:22.241Z,98449.28
2022-10-01T05:22:48.897Z,98472.84
2022-10-01T05:25:16.259Z,98474.50
2022-10-01T05:27:42.670Z,98464.44
2022-10-01T05:30:11.151Z,98473.75
2022-10-01T05:32:38.479Z,98480.84
2022-10-01T05:35:06.483Z,98469.16
2022-10-01T05:37:33.627Z,98474.31
2022-10-01T05:40:00.169Z,98466.34
2022-10-01T05:42:26.947Z,98472.63
2022-10-01T05:44:53.293Z,98462.31
2022-10-01T05:47:19.814Z,98453.03
2022-10-01T05:49:46.253Z,98460.53
2022-10-01T05:52:15.122Z,98456.22
2022-10-01T05:54:41.568Z,98451.06
2022-10-01T05:57:08.354Z,98448.19
2022-10-01T05:59:35.240Z,98437.13
2022-10-01T06:02:02.095Z,98436.13
2022-10-01T06:04:28.879Z,98435.28
2022-10-01T06:06:56.181Z,98430.97
2022-10-01T06:09:22.649Z,98434.94
2022-10-01T06:11:49.265Z,98428.84
2022-10-01T06:14:16.461Z,98421.50
2022-10-01T06:16:43.024Z,98409.06
2022-10-01T06:19:09.478Z,98404.56
2022-10-01T06:21:36.555Z,98394.31
2022-10-01T06:24:03.319Z,98389.97
2022-10-01T06:26:29.622Z,98381.50
2022-10-01T06:28:56.039Z,98355.59
2022-10-01T06:31:22.709Z,98379.97
2022-10-01T06:33:49.086Z,98361.47
2022-10-01T06:36:15.886Z,98360.47
2022-10-01T06:38:42.279Z,98379.16
2022-10-01T06:41:10.064Z,98354.25
2022-10-01T06:43:36.734Z,98349.22
2022-10-01T06:46:04.904Z,98335.50
2022-10-01T06:48:32.145Z,98342.19
2022-10-01T06:50:59.289Z,98330.38
2022-10-01T06:53:28.157Z,98316.03
2022-10-01T06:55:55.197Z,98315.31
2022-10-01T06:58:23.660Z,98304.66
2022-10-01T07:00:50.399Z,98287.13
2022-10-01T07:03:19.946Z,98276.59
2022-10-01T07:05:47.215Z,98288.75
2022-10-01T07:08:14.101Z,98290.81
2022-10-01T07:10:41.877Z,98282.41
2022-10-01T07:13:13.762Z,98274.38
2022-10-01T07:15:40.694Z,98272.81
2022-10-01T07:18:07.968Z,98284.78
2022-10-01T07:20:34.352Z,98272.03
2022-10-01T07:23:02.127Z,98265.66
2022-10-01T07:25:29.296Z,98270.47
2022-10-01T07:28:04.641Z,98274.91
2022-10-01T07:30:31.749Z,98273.22
2022-10-01T07:32:58.571Z,98260.72
2022-10-01T07:35:25.117Z,98273.47
2022-10-01T07:37:51.845Z,98269.88
2022-10-01T07:40:18.805Z,98281.53
2022-10-01T07:42:55.708Z,98287.69
2022-10-01T07:45:23.508Z,98289.91
2022-10-01T07:47:54.437Z,98275.53
2022-10-01T07:50:20.870Z,98272.66
2022-10-01T07:52:51.149Z,98269.66
2022-10-01T07:55:17.563Z,98270.75
2022-10-01T07:57:44.106Z,98262.50
2022-10-01T08:00:10.992Z,98244.66
2022-10-01T08:02:37.331Z,98232.31
2022-10-01T08:05:03.927Z,98213.19
2022-10-01T08:07:31.498Z,98220.97
2022-10-01T08:09:57.933Z,98223.19
2022-10-01T08:12:24.373Z,98233.22
2022-10-01T08:14:50.928Z,98229.91
2022-10-01T08:17:17.587Z,98228.41
2022-10-01T08:19:44.037Z,98224.94
2022-10-01T08:22:10.465Z,98224.28
2022-10-01T08:24:36.963Z,98228.50
2022-10-01T08:27:03.345Z,98222.03
2022-10-01T08:29:29.640Z,98237.44
2022-10-01T08:31:56.241Z,98230.34
2022-10-01T08:34:22.702Z,98231.41
2022-10-01T08:36:52.258Z,98240.59
2022-10-01T08:39:18.993Z,98241.53
2022-10-01T08:41:59.287Z,98260.88
2022-10-01T08:44:32.749Z,98259.44
2022-10-01T08:47:06.893Z,98270.75
2022-10-01T08:49:51.856Z,98269.94
2022-10-01T08:52:25.633Z,98283.81
2022-10-01T08:55:03.210Z,98272.47
2022-10-01T08:57:39.612Z,98275.00
2022-10-01T09:00:13.442Z,98272.91
2022-10-01T09:02:42.262Z,98279.06
2022-10-01T09:05:17.905Z,98288.25
2022-10-01T09:08:02.254Z,98281.44
2022-10-01T09:10:31.623Z,98288.72
2022-10-01T09:13:21.412Z,98289.72
2022-10-01T09:16:01.218Z,98288.97
2022-10-01T09:18:46.717Z,98295.00
2022-10-01T09:21:33.563Z,98294.09
2022-10-01T09:24:13.331Z,98291.88
2022-10-01T09:26:43.890Z,98301.06
2022-10-01T09:29:17.446Z,98304.28
2022-10-01T09:31:48.446Z,98299.38
2022-10-01T09:34:18.840Z,98291.16
2022-10-01T09:37:09.947Z,98300.69
2022-10-01T09:39:46.847Z,98294.84
2022-10-01T09:42:13.138Z,98287.31
2022-10-01T09:44:39.539Z,98294.19
2022-10-01T09:47:20.987Z,98292.53
2022-10-01T09:49:49.129Z,98282.50
2022-10-01T09:52:33.253Z,98276.63
2022-10-01T09:55:05.574Z,98275.78
2022-10-01T09:57:36.486Z,98282.69
2022-10-01T10:00:10.600Z,98275.91
2022-10-01T10:02:49.098Z,98264.56
2022-10-01T10:05:19.039Z,98262.09
2022-10-01T10:08:00.033Z,98279.53
2022-10-01T10:10:30.713Z,98255.22
2022-10-01T10:13:16.513Z,98259.31
2022-10-01T10:16:16.318Z,98256.78
2022-10-01T10:18:46.459Z,98265.59
2022-10-01T10:21:16.553Z,98277.88
2022-10-01T10:23:52.317Z,98269.94
2022-10-01T10:26:34.011Z,98279.06
2022-10-01T10:29:02.540Z,98285.03
2022-10-01T10:31:42.393Z,98284.06
2022-10-01T10:34:17.256Z,98277.84
2022-10-01T10:36:45.810Z,98285.94
2022-10-01T10:39:22.770Z,98298.22
2022-10-01T10:41:52.227Z,98289.69
2022-10-01T10:44:20.738Z,98290.09
2022-10-01T10:46:49.297Z,98301.25
2022-10-01T10:49:21.409Z,98291.72
2022-10-01T10:51:53.413Z,98305.38
2022-10-01T10:54:22.894Z,98310.03
2022-10-01T10:56:53.995Z,98299.69
2022-10-01T10:59:20.653Z,98313.00
2022-10-01T11:01:48.470Z,98298.28
2022-10-01T11:04:36.542Z,98316.66
2022-10-01T11:07:03.332Z,98302.00
2022-10-01T11:09:52.419Z,98306.78
2022-10-01T11:12:30.420Z,98306.66
2022-10-01T11:15:36.246Z,98309.34
2022-10-01T11:18:27.236Z,98301.06
2022-10-01T11:21:24.748Z,98298.06
2022-10-01T11:24:00.117Z,98304.66
2022-10-01T11:26:50.608Z,98295.28
2022-10-01T11:29:31.787Z,98292.00
2022-10-01T11:32:21.694Z,98293.38
2022-10-01T11:35:11.002Z,98298.97
2022-10-01T11:37:55.640Z,98303.56
2022-10-01T11:40:28.621Z,98295.22
2022-10-01T11:43:00.804Z,98297.13
2022-10-01T11:45:35.337Z,98297.69
2022-10-01T11:48:09.781Z,98292.53
2022-10-01T11:50:42.546Z,98300.38
2022-10-01T11:53:19.075Z,98313.56
2022-10-01T11:55:53.381Z,98314.78
2022-10-01T11:58:39.334Z,98296.13
2022-10-01T12:01:09.838Z,98317.31
2022-10-01T12:03:47.700Z,98306.84
2022-10-01T12:06:15.622Z,98304.94
2022-10-01T12:08:47.143Z,98299.47
2022-10-01T12:11:22.624Z,98308.28
2022-10-01T12:13:56.326Z,98305.75
2022-10-01T12:16:32.073Z,98303.94
2022-10-01T12:19:03.191Z,98312.44
2022-10-01T12:21:37.128Z,98302.88
2022-10-01T12:24:11.847Z,98300.84
2022-10-01T12:27:00.186Z,98311.47
2022-10-01T12:29:35.429Z,98310.00
2022-10-01T12:32:10.869Z,98308.69
2022-10-01T12:34:40.333Z,98318.81
2022-10-01T12:37:06.893Z,98317.16
2022-10-01T12:39:42.863Z,98326.22
2022-10-01T12:42:34.500Z,98313.53
2022-10-01T12:45:17.408Z,98321.09
2022-10-01T12:47:58.121Z,98312.50
2022-10-01T12:50:35.847Z,98321.63
2022-10-01T12:53:11.149Z,98319.16
2022-10-01T12:55:43.515Z,98312.22
2022-10-01T12:58:38.855Z,98320.13
2022-10-01T13:01:30.186Z,98315.94
2022-10-01T13:04:23.402Z,98316.91
2022-10-01T13:07:09.294Z,98317.75
2022-10-01T13:09:48.753Z,98325.25
2022-10-01T13:12:55.602Z,98311.88
2022-10-01T13:15:40.772Z,98322.91
2022-10-01T13:18:36.653Z,98321.47
2022-10-01T13:21:32.946Z,98333.00
2022-10-01T13:24:05.729Z,98338.00
2022-10-01T13:26:43.305Z,98348.31
2022-10-01T13:29:31.756Z,98341.72
2022-10-01T13:32:04.066Z,98342.34
2022-10-01T13:34:43.745Z,98337.59
2022-10-01T13:37:19.252Z,98336.56
2022-10-01T13:39:46.654Z,98346.75
2022-10-01T13:42:38.317Z,98339.84
2022-10-01T13:45:23.742Z,98353.16
2022-10-01T13:47:50.574Z,98341.97
2022-10-01T13:50:24.870Z,98338.34
2022-10-01T13:52:53.109Z,98339.56
2022-10-01T13:55:27.083Z,98339.97
2022-10-01T13:58:05.488Z,98351.53
2022-10-01T14:00:32.105Z,98349.84
2022-10-01T14:03:03.670Z,98345.34
2022-10-01T14:05:35.998Z,98335.88
2022-10-01T14:08:24.663Z,98342.16
2022-10-01T14:10:58.026Z,98341.41
2022-10-01T14:13:26.605Z,98342.69
2022-10-01T14:15:53.512Z,98354.28
2022-10-01T14:18:23.428Z,98365.03
2022-10-01T14:21:17.587Z,98368.03
2022-10-01T14:24:02.297Z,98364.31
2022-10-01T14:27:00.078Z,98374.53
2022-10-01T14:29:43.710Z,98365.22
2022-10-01T14:32:28.339Z,98370.75
2022-10-01T14:35:00.699Z,98378.09
2022-10-01T14:37:28.938Z,98374.63
2022-10-01T14:40:17.412Z,98392.53
2022-10-01T14:42:44.419Z,98381.66
2022-10-01T14:45:18.400Z,98375.66
2022-10-01T14:47:45.064Z,98378.22
2022-10-01T14:50:18.110Z,98376.63
2022-10-01T14:52:48.471Z,98372.59
2022-10-01T14:55:18.190Z,98380.59
2022-10-01T14:57:48.421Z,98372.28
2022-10-01T15:00:19.587Z,98373.16
2022-10-01T15:02:47.321Z,98375.28
2022-10-01T15:05:27.545Z,98363.66
2022-10-01T15:07:53.885Z,98359.22
2022-10-01T15:10:22.122Z,98365.09
2022-10-01T15:12:51.694Z,98341.19
2022-10-01T15:15:24.549Z,98370.56
2022-10-01T15:17:52.706Z,98373.56
2022-10-01T15:20:19.500Z,98386.91
2022-10-01T15:22:49.955Z,98391.16
2022-10-01T15:25:23.575Z,98394.91
2022-10-01T15:27:50.227Z,98388.63
2022-10-01T15:30:17.862Z,98398.09
2022-10-01T15:32:46.524Z,98403.56
2022-10-01T15:35:17.971Z,98407.19
2022-10-01T15:37:50.106Z,98419.09
2022-10-01T15:40:29.853Z,98418.94
2022-10-01T15:43:13.347Z,98434.47
2022-10-01T15:45:40.414Z,98455.53
2022-10-01T15:48:26.834Z,98456.78
2022-10-01T15:51:00.048Z,98463.50
2022-10-01T15:53:26.542Z,98466.97
2022-10-01T15:55:54.949Z,98469.91
2022-10-01T15:58:46.626Z,98467.41
2022-10-01T16:01:22.068Z,98459.44
2022-10-01T16:04:10.311Z,98476.84
2022-10-01T16:06:42.130Z,98474.72
2022-10-01T16:09:18.925Z,98478.47
2022-10-01T16:11:53.013Z,98490.25
2022-10-01T16:14:37.893Z,98496.22
2022-10-01T16:17:19.349Z,98484.16
2022-10-01T16:19:47.593Z,98495.75
2022-10-01T16:22:29.006Z,98492.00
2022-10-01T16:24:56.554Z,98507.19
2022-10-01T16:27:33.951Z,98513.50
2022-10-01T16:30:23.418Z,98535.97
2022-10-01T16:32:50.632Z,98513.41
2022-10-01T16:35:22.720Z,98538.56
2022-10-01T16:37:51.479Z,98535.66
2022-10-01T16:40:19.263Z,98545.13
2022-10-01T16:42:46.754Z,98551.63
2022-10-01T16:45:15.687Z,98560.50
2022-10-01T16:47:42.589Z,98561.75
2022-10-01T16:50:18.031Z,98560.78
2022-10-01T16:52:44.396Z,98563.94
2022-10-01T16:55:21.157Z,98561.81
2022-10-01T16:57:47.627Z,98572.41
2022-10-01T17:00:15.567Z,98594.81
2022-10-01T17:02:42.658Z,98585.59
2022-10-01T17:05:36.254Z,98589.63
2022-10-01T17:08:03.402Z,98607.97
2022-10-01T17:10:32.195Z,98608.66
2022-10-01T17:12:58.959Z,98603.91
2022-10-01T17:15:27.419Z,98607.63
2022-10-01T17:17:55.007Z,98609.94
2022-10-01T17:20:22.834Z,98615.34
2022-10-01T17:22:50.221Z,98617.34
2022-10-01T17:25:20.665Z,98620.81
2022-10-01T17:27:47.928Z,98615.47
2022-10-01T17:30:15.575Z,98620.69
2022-10-01T17:32:42.606Z,98625.22
2022-10-01T17:35:13.451Z,98628.88
2022-10-01T17:37:41.389Z,98632.84
2022-10-01T17:40:09.531Z,98640.88
2022-10-01T17:42:36.241Z,98642.00
2022-10-01T17:45:06.655Z,98666.09
2022-10-01T17:47:33.605Z,98657.78
2022-10-01T17:50:00.491Z,98669.75
2022-10-01T17:52:26.918Z,98663.84
2022-10-01T17:54:53.239Z,98680.72
2022-10-01T17:57:19.583Z,98683.72
2022-10-01T17:59:45.981Z,98690.19
2022-10-01T18:02:36.462Z,98694.63
2022-10-01T18:04:59.583Z,98687.34
2022-10-01T18:07:25.898Z,98693.69
2022-10-01T18:09:52.725Z,98696.56
2022-10-01T18:12:19.806Z,98702.22
2022-10-01T18:14:46.126Z,98703.66
2022-10-01T18:17:12.861Z,98707.91
2022-10-01T18:19:53.434Z,98707.56
2022-10-01T18:22:20.999Z,98717.38
2022-10-01T18:24:47.640Z,98721.34
2022-10-01T18:27:14.056Z,98721.81
2022-10-01T18:29:40.497Z,98715.81
2022-10-01T18:32:23.579Z,98731.97
2022-10-01T18:34:58.075Z,98724.41
2022-10-01T18:37:46.296Z,98734.25
2022-10-01T18:40:35.381Z,98730.91
2022-10-01T18:43:20.390Z,98738.19
2022-10-01T18:46:17.059Z,98748.22
2022-10-01T18:49:01.586Z,98758.13
2022-10-01T18:51:56.167Z,98760.06
2022-10-01T18:55:11.046Z,98768.59
2022-10-01T18:58:04.874Z,98772.94
2022-10-01T19:00:45.054Z,98780.72
2022-10-01T19:03:31.322Z,98781.44
2022-10-01T19:06:01.983Z,98791.97
2022-10-01T19:08:37.360Z,98797.75
2022-10-01T19:11:18.263Z,98799.44
2022-10-01T19:13:55.696Z,98799.91
2022-10-01T19:16:43.761Z,98809.88
2022-10-01T19:19:37.086Z,98816.44
2022-10-01T19:22:25.061Z,98820.47
2022-10-01T19:25:22.068Z,98830.53
2022-10-01T19:28:09.878Z,98824.31
2022-10-01T19:31:27.188Z,98828.22
2022-10-01T19:34:04.887Z,98834.94
2022-10-01T19:36:38.125Z,98842.03
2022-10-01T19:39:12.241Z,98846.31
2022-10-01T19:41:42.069Z,98848.72
2022-10-01T19:44:20.547Z,98839.91
2022-10-01T19:46:49.445Z,98857.69
2022-10-01T19:49:36.969Z,98854.84
2022-10-01T19:52:11.950Z,98859.63
2022-10-01T19:54:43.768Z,98872.66
2022-10-01T19:57:31.977Z,98869.09
2022-10-01T20:00:00.913Z,98863.31
2022-10-01T20:03:06.737Z,98874.97
2022-10-01T20:05:54.704Z,98875.44
2022-10-01T20:08:41.390Z,98885.50
2022-10-01T20:11:29.266Z,98881.66
2022-10-01T20:14:16.089Z,98901.34
2022-10-01T20:16:47.218Z,98897.13
2022-10-01T20:19:24.615Z,98901.56
2022-10-01T20:22:04.689Z,98914.53
2022-10-01T20:24:57.117Z,98913.09
2022-10-01T20:27:42.263Z,98912.91
2022-10-01T20:30:16.324Z,98920.47
2022-10-01T20:33:31.549Z,98927.81
2022-10-01T20:36:05.425Z,98924.94
2022-10-01T20:39:06.450Z,98927.91
2022-10-01T20:41:42.674Z,98933.53
2022-10-01T20:44:14.859Z,98938.34
2022-10-01T20:46:47.629Z,98941.09
2022-10-01T20:49:36.401Z,98944.72
2022-10-01T20:52:47.250Z,98944.19
2022-10-01T20:55:18.446Z,98953.84
2022-10-01T20:57:47.870Z,98956.69
2022-10-01T21:00:21.834Z,98955.03
2022-10-01T21:03:32.196Z,98964.59
2022-10-01T21:06:07.358Z,98971.56
2022-10-01T21:08:41.035Z,98974.06
2022-10-01T21:11:29.222Z,98982.00
2022-10-01T21:14:15.730Z,98984.59
2022-10-01T21:16:55.294Z,98985.06
2022-10-01T21:19:30.731Z,98993.09
2022-10-01T21:22:03.509Z,99002.38
2022-10-01T21:24:44.719Z,99010.28
2022-10-01T21:27:30.936Z,99006.56
2022-10-01T21:30:06.618Z,99006.66
2022-10-01T21:33:02.110Z,99009.41
2022-10-01T21:35:49.991Z,99018.19
2022-10-01T21:38:51.895Z,99017.38
2022-10-01T21:41:40.092Z,99023.69
2022-10-01T21:44:24.685Z,99018.03
2022-10-01T21:47:17.299Z,99025.94
2022-10-01T21:49:55.532Z,99024.78
2022-10-01T21:52:37.902Z,99036.69
2022-10-01T21:55:22.949Z,99037.97
2022-10-01T21:58:30.603Z,99048.53
2022-10-01T22:01:13.494Z,99048.44
2022-10-01T22:03:53.943Z,99057.81
2022-10-01T22:06:46.511Z,99054.13
2022-10-01T22:09:26.447Z,99054.88
2022-10-01T22:11:56.691Z,99061.06
2022-10-01T22:14:31.296Z,99064.66
2022-10-01T22:17:12.380Z,99067.31
2022-10-01T22:19:42.801Z,99072.56
2022-10-01T22:22:14.615Z,99072.16
2022-10-01T22:24:48.615Z,99074.59
2022-10-01T22:27:27.893Z,99076.19
2022-10-01T22:30:04.306Z,99081.66
2022-10-01T22:32:52.944Z,99082.09
2022-10-01T22:35:26.146Z,99090.06
2022-10-01T22:38:00.158Z,99090.50
2022-10-01T22:40:35.781Z,99097.88
2022-10-01T22:43:10.278Z,99098.72
2022-10-01T22:46:20.264Z,99100.81
2022-10-01T22:49:15.022Z,99103.13
2022-10-01T22:52:09.776Z,99104.28
2022-10-01T22:54:59.246Z,99105.31
2022-10-01T22:57:41.017Z,99115.97
2022-10-01T23:00:10.987Z,99115.66
2022-10-01T23:02:48.098Z,99112.38
2022-10-01T23:05:32.736Z,99115.13
2022-10-01T23:08:28.170Z,99129.03
2022-10-01T23:11:04.106Z,99125.97
2022-10-01T23:13:52.022Z,99127.34
2022-10-01T23:16:59.020Z,99137.13
2022-10-01T23:19:43.854Z,99135.13
2022-10-01T23:22:39.711Z,99137.22
2022-10-01T23:25:34.863Z,99147.53
2022-10-01T23:28:45.290Z,99147.97
2022-10-01T23:31:28.024Z,99149.03
2022-10-01T23:34:09.897Z,99151.88
2022-10-01T23:36:58.664Z,99157.38
2022-10-01T23:39:48.832Z,99153.56
2022-10-01T23:42:33.594Z,99164.94
2022-10-01T23:45:09.404Z,99157.91
2022-10-01T23:47:42.855Z,99166.84
2022-10-01T23:50:21.026Z,99169.38
2022-10-01T23:53:04.798Z,99168.94
2022-10-01T23:55:57.022Z,99177.56
2022-10-01T23:58:25.106Z,99167.72
